sensor_id;sensor_type;location;lat;lon;timestamp;P1;durP1;ratioP1;P2;durP2;ratioP2
6499;SDS011;3283;52.330;9.772;2023-09-19T04:56:21;553.80;;;196.77;;
6499;SDS011;3283;52.330;9.772;2023-09-19T04:58:48;557.70;;;206.97;;
6499;SDS011;3283;52.330;9.772;2023-09-19T05:01:13;569.83;;;244.93;;
6499;SDS011;3283;52.330;9.772;2023-09-19T05:03:40;563.63;;;224.23;;
6499;SDS011;3283;52.330;9.772;2023-09-19T05:06:06;570.70;;;240.77;;
6499;SDS011;3283;52.330;9.772;2023-09-19T05:08:31;576.00;;;243.50;;
6499;SDS011;3283;52.330;9.772;2023-09-19T05:10:57;583.97;;;270.53;;
6499;SDS011;3283;52.330;9.772;2023-09-19T05:13:22;582.83;;;277.07;;
6499;SDS011;3283;52.330;9.772;2023-09-19T05:15:49;580.50;;;280.50;;
6499;SDS011;3283;52.330;9.772;2023-09-19T05:18:15;577.87;;;260.67;;
6499;SDS011;3283;52.330;9.772;2023-09-19T05:20:40;572.80;;;242.83;;
6499;SDS011;3283;52.330;9.772;2023-09-19T05:23:07;581.70;;;271.57;;
6499;SDS011;3283;52.330;9.772;2023-09-19T05:25:35;578.17;;;262.73;;
6499;SDS011;3283;52.330;9.772;2023-09-19T05:28:08;583.17;;;290.90;;
6499;SDS011;3283;52.330;9.772;2023-09-19T05:30:39;585.47;;;285.43;;
6499;SDS011;3283;52.330;9.772;2023-09-19T05:33:06;583.30;;;277.87;;
6499;SDS011;3283;52.330;9.772;2023-09-19T05:35:32;587.40;;;297.60;;
6499;SDS011;3283;52.330;9.772;2023-09-19T05:37:58;579.90;;;271.93;;
6499;SDS011;3283;52.330;9.772;2023-09-19T05:40:23;589.97;;;278.63;;
6499;SDS011;3283;52.330;9.772;2023-09-19T05:42:50;581.93;;;257.83;;
6499;SDS011;3283;52.330;9.772;2023-09-19T05:45:15;579.40;;;261.23;;
6499;SDS011;3283;52.330;9.772;2023-09-19T05:47:47;576.27;;;261.53;;
6499;SDS011;3283;52.330;9.772;2023-09-19T05:50:16;586.67;;;294.20;;
6499;SDS011;3283;52.330;9.772;2023-09-19T05:52:43;582.43;;;287.90;;
6499;SDS011;3283;52.330;9.772;2023-09-19T05:55:09;583.43;;;273.33;;
6499;SDS011;3283;52.330;9.772;2023-09-19T05:57:35;578.97;;;262.93;;
6499;SDS011;3283;52.330;9.772;2023-09-19T06:00:04;583.87;;;287.53;;
6499;SDS011;3283;52.330;9.772;2023-09-19T06:02:34;590.53;;;271.93;;
6499;SDS011;3283;52.330;9.772;2023-09-19T06:05:00;584.27;;;272.90;;
6499;SDS011;3283;52.330;9.772;2023-09-19T06:07:26;593.13;;;291.80;;
6499;SDS011;3283;52.330;9.772;2023-09-19T06:09:53;586.27;;;281.03;;
6499;SDS011;3283;52.330;9.772;2023-09-19T06:12:19;588.83;;;295.70;;
6499;SDS011;3283;52.330;9.772;2023-09-19T06:14:44;585.40;;;276.47;;
6499;SDS011;3283;52.330;9.772;2023-09-19T06:17:10;589.80;;;287.07;;
6499;SDS011;3283;52.330;9.772;2023-09-19T06:19:35;577.23;;;244.53;;
6499;SDS011;3283;52.330;9.772;2023-09-19T06:22:01;581.43;;;257.30;;
6499;SDS011;3283;52.330;9.772;2023-09-19T06:24:26;583.00;;;281.33;;
6499;SDS011;3283;52.330;9.772;2023-09-19T06:26:52;588.50;;;287.97;;
6499;SDS011;3283;52.330;9.772;2023-09-19T06:29:18;588.77;;;304.27;;
6499;SDS011;3283;52.330;9.772;2023-09-19T06:31:43;586.17;;;276.03;;
6499;SDS011;3283;52.330;9.772;2023-09-19T06:34:09;591.87;;;309.20;;
6499;SDS011;3283;52.330;9.772;2023-09-19T06:36:35;583.27;;;265.23;;
6499;SDS011;3283;52.330;9.772;2023-09-19T06:39:01;582.50;;;263.93;;
6499;SDS011;3283;52.330;9.772;2023-09-19T06:41:29;595.30;;;306.00;;
6499;SDS011;3283;52.330;9.772;2023-09-19T06:43:55;579.23;;;249.97;;
6499;SDS011;3283;52.330;9.772;2023-09-19T06:46:20;588.53;;;291.83;;
6499;SDS011;3283;52.330;9.772;2023-09-19T06:48:45;581.93;;;255.80;;
6499;SDS011;3283;52.330;9.772;2023-09-19T06:51:12;584.20;;;292.63;;
6499;SDS011;3283;52.330;9.772;2023-09-19T06:53:40;588.87;;;291.03;;
6499;SDS011;3283;52.330;9.772;2023-09-19T06:56:06;590.37;;;297.03;;
6499;SDS011;3283;52.330;9.772;2023-09-19T06:58:31;589.37;;;299.87;;
6499;SDS011;3283;52.330;9.772;2023-09-19T07:00:57;590.73;;;307.23;;
6499;SDS011;3283;52.330;9.772;2023-09-19T07:03:22;592.57;;;297.93;;
6499;SDS011;3283;52.330;9.772;2023-09-19T07:05:51;584.93;;;277.13;;
6499;SDS011;3283;52.330;9.772;2023-09-19T07:08:17;595.80;;;317.80;;
6499;SDS011;3283;52.330;9.772;2023-09-19T07:10:45;595.03;;;315.73;;
6499;SDS011;3283;52.330;9.772;2023-09-19T07:13:13;590.03;;;311.17;;
6499;SDS011;3283;52.330;9.772;2023-09-19T07:15:41;594.23;;;287.87;;
6499;SDS011;3283;52.330;9.772;2023-09-19T07:18:15;592.33;;;301.83;;
6499;SDS011;3283;52.330;9.772;2023-09-19T07:20:41;582.67;;;271.60;;
6499;SDS011;3283;52.330;9.772;2023-09-19T07:23:14;586.23;;;274.93;;
6499;SDS011;3283;52.330;9.772;2023-09-19T07:25:40;587.07;;;292.03;;
6499;SDS011;3283;52.330;9.772;2023-09-19T07:28:06;598.07;;;309.30;;
6499;SDS011;3283;52.330;9.772;2023-09-19T07:30:31;592.33;;;301.03;;
6499;SDS011;3283;52.330;9.772;2023-09-19T07:32:57;592.77;;;328.30;;
6499;SDS011;3283;52.330;9.772;2023-09-19T07:35:22;595.33;;;320.90;;
6499;SDS011;3283;52.330;9.772;2023-09-19T07:37:49;585.37;;;279.67;;
6499;SDS011;3283;52.330;9.772;2023-09-19T07:40:18;589.43;;;284.43;;
6499;SDS011;3283;52.330;9.772;2023-09-19T07:42:45;588.87;;;289.10;;
6499;SDS011;3283;52.330;9.772;2023-09-19T07:45:12;593.93;;;320.43;;
6499;SDS011;3283;52.330;9.772;2023-09-19T07:47:48;593.53;;;295.67;;
6499;SDS011;3283;52.330;9.772;2023-09-19T07:50:18;604.77;;;343.03;;
6499;SDS011;3283;52.330;9.772;2023-09-19T07:52:45;589.43;;;288.77;;
6499;SDS011;3283;52.330;9.772;2023-09-19T07:55:11;596.37;;;322.40;;
6499;SDS011;3283;52.330;9.772;2023-09-19T07:57:36;593.33;;;311.10;;
6499;SDS011;3283;52.330;9.772;2023-09-19T08:00:02;591.20;;;286.17;;
6499;SDS011;3283;52.330;9.772;2023-09-19T08:02:35;597.60;;;313.17;;
6499;SDS011;3283;52.330;9.772;2023-09-19T08:05:03;593.60;;;315.97;;
6499;SDS011;3283;52.330;9.772;2023-09-19T08:07:32;592.07;;;292.50;;
6499;SDS011;3283;52.330;9.772;2023-09-19T08:09:57;591.40;;;289.03;;
6499;SDS011;3283;52.330;9.772;2023-09-19T08:12:24;603.90;;;316.13;;
6499;SDS011;3283;52.330;9.772;2023-09-19T08:14:49;601.33;;;337.47;;
6499;SDS011;3283;52.330;9.772;2023-09-19T08:17:15;600.73;;;343.60;;
6499;SDS011;3283;52.330;9.772;2023-09-19T08:19:41;598.13;;;308.70;;
6499;SDS011;3283;52.330;9.772;2023-09-19T08:22:07;587.43;;;285.97;;
6499;SDS011;3283;52.330;9.772;2023-09-19T08:24:35;598.70;;;307.33;;
6499;SDS011;3283;52.330;9.772;2023-09-19T08:27:01;596.90;;;312.27;;
6499;SDS011;3283;52.330;9.772;2023-09-19T08:29:30;596.63;;;317.83;;
6499;SDS011;3283;52.330;9.772;2023-09-19T08:31:56;602.27;;;362.97;;
6499;SDS011;3283;52.330;9.772;2023-09-19T08:34:23;616.87;;;380.90;;
6499;SDS011;3283;52.330;9.772;2023-09-19T08:36:52;607.53;;;354.50;;
6499;SDS011;3283;52.330;9.772;2023-09-19T08:39:21;595.43;;;329.33;;
6499;SDS011;3283;52.330;9.772;2023-09-19T08:41:47;609.10;;;377.17;;
6499;SDS011;3283;52.330;9.772;2023-09-19T08:44:12;593.60;;;320.13;;
6499;SDS011;3283;52.330;9.772;2023-09-19T08:46:38;610.37;;;371.27;;
6499;SDS011;3283;52.330;9.772;2023-09-19T08:49:17;603.40;;;375.37;;
6499;SDS011;3283;52.330;9.772;2023-09-19T08:51:53;597.80;;;339.63;;
6499;SDS011;3283;52.330;9.772;2023-09-19T08:54:45;608.90;;;382.33;;
6499;SDS011;3283;52.330;9.772;2023-09-19T08:57:13;597.50;;;341.20;;
6499;SDS011;3283;52.330;9.772;2023-09-19T08:59:46;606.20;;;372.60;;
6499;SDS011;3283;52.330;9.772;2023-09-19T09:02:13;607.57;;;364.27;;
6499;SDS011;3283;52.330;9.772;2023-09-19T09:04:43;605.00;;;349.47;;
6499;SDS011;3283;52.330;9.772;2023-09-19T09:07:11;598.73;;;350.70;;
6499;SDS011;3283;52.330;9.772;2023-09-19T09:09:44;608.70;;;380.73;;
6499;SDS011;3283;52.330;9.772;2023-09-19T09:12:13;596.40;;;325.40;;
6499;SDS011;3283;52.330;9.772;2023-09-19T09:14:43;604.43;;;370.80;;
6499;SDS011;3283;52.330;9.772;2023-09-19T09:17:11;598.73;;;342.30;;
6499;SDS011;3283;52.330;9.772;2023-09-19T09:19:37;598.47;;;327.90;;
6499;SDS011;3283;52.330;9.772;2023-09-19T09:22:09;593.93;;;324.23;;
6499;SDS011;3283;52.330;9.772;2023-09-19T09:24:36;607.37;;;381.63;;
6499;SDS011;3283;52.330;9.772;2023-09-19T09:27:04;608.17;;;390.90;;
6499;SDS011;3283;52.330;9.772;2023-09-19T09:29:40;599.07;;;333.90;;
6499;SDS011;3283;52.330;9.772;2023-09-19T09:32:20;607.80;;;371.30;;
6499;SDS011;3283;52.330;9.772;2023-09-19T09:34:50;607.40;;;381.87;;
6499;SDS011;3283;52.330;9.772;2023-09-19T09:37:19;595.47;;;331.83;;
6499;SDS011;3283;52.330;9.772;2023-09-19T09:39:49;602.73;;;360.53;;
6499;SDS011;3283;52.330;9.772;2023-09-19T09:42:44;606.20;;;382.77;;
6499;SDS011;3283;52.330;9.772;2023-09-19T09:47:59;608.57;;;399.53;;
6499;SDS011;3283;52.330;9.772;2023-09-19T09:50:29;601.53;;;358.83;;
6499;SDS011;3283;52.330;9.772;2023-09-19T09:53:20;606.50;;;373.43;;
6499;SDS011;3283;52.330;9.772;2023-09-19T09:58:35;610.97;;;395.50;;
6499;SDS011;3283;52.330;9.772;2023-09-19T10:01:02;609.73;;;381.47;;
6499;SDS011;3283;52.330;9.772;2023-09-19T10:06:12;610.03;;;399.57;;
6499;SDS011;3283;52.330;9.772;2023-09-19T10:09:00;614.20;;;417.40;;
6499;SDS011;3283;52.330;9.772;2023-09-19T10:11:30;617.50;;;438.83;;
6499;SDS011;3283;52.330;9.772;2023-09-19T10:13:56;609.00;;;394.97;;
6499;SDS011;3283;52.330;9.772;2023-09-19T10:16:22;610.73;;;398.93;;
6499;SDS011;3283;52.330;9.772;2023-09-19T10:18:50;613.83;;;417.17;;
6499;SDS011;3283;52.330;9.772;2023-09-19T10:21:19;616.27;;;429.77;;
6499;SDS011;3283;52.330;9.772;2023-09-19T10:23:48;609.97;;;390.70;;
6499;SDS011;3283;52.330;9.772;2023-09-19T10:26:17;615.67;;;397.40;;
6499;SDS011;3283;52.330;9.772;2023-09-19T10:28:43;609.50;;;401.23;;
6499;SDS011;3283;52.330;9.772;2023-09-19T10:31:13;619.97;;;444.30;;
6499;SDS011;3283;52.330;9.772;2023-09-19T10:33:44;608.83;;;398.70;;
6499;SDS011;3283;52.330;9.772;2023-09-19T10:36:14;610.40;;;404.47;;
6499;SDS011;3283;52.330;9.772;2023-09-19T10:38:40;624.27;;;463.13;;
6499;SDS011;3283;52.330;9.772;2023-09-19T10:41:09;618.70;;;426.07;;
6499;SDS011;3283;52.330;9.772;2023-09-19T10:43:39;619.20;;;440.63;;
6499;SDS011;3283;52.330;9.772;2023-09-19T10:46:09;620.10;;;455.07;;
6499;SDS011;3283;52.330;9.772;2023-09-19T10:48:36;624.40;;;467.60;;
6499;SDS011;3283;52.330;9.772;2023-09-19T10:51:07;621.40;;;455.90;;
6499;SDS011;3283;52.330;9.772;2023-09-19T10:53:55;615.60;;;419.73;;
6499;SDS011;3283;52.330;9.772;2023-09-19T10:56:26;612.07;;;417.33;;
6499;SDS011;3283;52.330;9.772;2023-09-19T10:59:10;617.50;;;439.33;;
6499;SDS011;3283;52.330;9.772;2023-09-19T11:01:41;617.60;;;430.70;;
6499;SDS011;3283;52.330;9.772;2023-09-19T11:04:34;619.40;;;445.60;;
6499;SDS011;3283;52.330;9.772;2023-09-19T11:07:13;618.57;;;454.33;;
6499;SDS011;3283;52.330;9.772;2023-09-19T11:14:54;617.83;;;454.43;;
6499;SDS011;3283;52.330;9.772;2023-09-19T11:30:40;625.37;;;483.87;;
6499;SDS011;3283;52.330;9.772;2023-09-19T11:33:25;624.40;;;451.67;;
6499;SDS011;3283;52.330;9.772;2023-09-19T11:46:25;622.30;;;447.70;;
6499;SDS011;3283;52.330;9.772;2023-09-19T11:48:53;618.37;;;441.00;;
6499;SDS011;3283;52.330;9.772;2023-09-19T11:51:23;620.73;;;472.97;;
6499;SDS011;3283;52.330;9.772;2023-09-19T11:53:56;621.60;;;460.43;;
6499;SDS011;3283;52.330;9.772;2023-09-19T11:56:25;640.67;;;476.47;;
6499;SDS011;3283;52.330;9.772;2023-09-19T11:58:54;610.87;;;410.93;;
6499;SDS011;3283;52.330;9.772;2023-09-19T12:01:30;622.67;;;464.27;;
6499;SDS011;3283;52.330;9.772;2023-09-19T12:03:58;614.83;;;424.67;;
6499;SDS011;3283;52.330;9.772;2023-09-19T12:06:25;613.30;;;411.23;;
6499;SDS011;3283;52.330;9.772;2023-09-19T12:08:51;623.57;;;483.07;;
6499;SDS011;3283;52.330;9.772;2023-09-19T12:11:19;620.30;;;463.03;;
6499;SDS011;3283;52.330;9.772;2023-09-19T12:13:48;616.13;;;431.60;;
6499;SDS011;3283;52.330;9.772;2023-09-19T12:16:14;614.77;;;428.90;;
6499;SDS011;3283;52.330;9.772;2023-09-19T12:18:47;622.77;;;471.47;;
6499;SDS011;3283;52.330;9.772;2023-09-19T12:24:14;620.60;;;445.97;;
6499;SDS011;3283;52.330;9.772;2023-09-19T12:26:44;623.63;;;461.87;;
6499;SDS011;3283;52.330;9.772;2023-09-19T12:29:16;613.27;;;408.43;;
6499;SDS011;3283;52.330;9.772;2023-09-19T12:34:21;617.87;;;428.33;;
6499;SDS011;3283;52.330;9.772;2023-09-19T12:36:48;628.80;;;489.30;;
6499;SDS011;3283;52.330;9.772;2023-09-19T12:39:23;623.23;;;446.13;;
6499;SDS011;3283;52.330;9.772;2023-09-19T12:41:52;625.23;;;475.33;;
6499;SDS011;3283;52.330;9.772;2023-09-19T12:44:18;620.27;;;439.83;;
6499;SDS011;3283;52.330;9.772;2023-09-19T12:46:44;621.67;;;469.70;;
6499;SDS011;3283;52.330;9.772;2023-09-19T12:49:20;623.40;;;444.73;;
6499;SDS011;3283;52.330;9.772;2023-09-19T12:51:46;631.30;;;497.90;;
6499;SDS011;3283;52.330;9.772;2023-09-19T12:54:12;626.90;;;482.03;;
6499;SDS011;3283;52.330;9.772;2023-09-19T12:56:42;617.60;;;445.47;;
6499;SDS011;3283;52.330;9.772;2023-09-19T12:59:09;626.17;;;475.57;;
6499;SDS011;3283;52.330;9.772;2023-09-19T13:01:38;625.83;;;489.13;;
6499;SDS011;3283;52.330;9.772;2023-09-19T13:04:12;632.70;;;520.03;;
6499;SDS011;3283;52.330;9.772;2023-09-19T13:06:38;628.53;;;497.13;;
6499;SDS011;3283;52.330;9.772;2023-09-19T13:09:08;626.97;;;490.13;;
6499;SDS011;3283;52.330;9.772;2023-09-19T13:11:38;616.20;;;443.40;;
6499;SDS011;3283;52.330;9.772;2023-09-19T13:14:21;611.23;;;423.33;;
6499;SDS011;3283;52.330;9.772;2023-09-19T13:19:34;629.10;;;497.43;;
6499;SDS011;3283;52.330;9.772;2023-09-19T13:22:00;620.07;;;443.20;;
6499;SDS011;3283;52.330;9.772;2023-09-19T13:24:26;624.67;;;472.47;;
6499;SDS011;3283;52.330;9.772;2023-09-19T13:26:52;618.67;;;440.90;;
6499;SDS011;3283;52.330;9.772;2023-09-19T13:29:18;618.20;;;451.83;;
6499;SDS011;3283;52.330;9.772;2023-09-19T13:31:47;622.10;;;457.33;;
6499;SDS011;3283;52.330;9.772;2023-09-19T13:34:13;627.83;;;472.10;;
6499;SDS011;3283;52.330;9.772;2023-09-19T13:36:42;625.30;;;482.20;;
6499;SDS011;3283;52.330;9.772;2023-09-19T13:39:08;627.23;;;478.57;;
6499;SDS011;3283;52.330;9.772;2023-09-19T13:41:34;617.20;;;446.13;;
6499;SDS011;3283;52.330;9.772;2023-09-19T13:44:01;621.13;;;462.77;;
6499;SDS011;3283;52.330;9.772;2023-09-19T13:46:28;615.53;;;433.23;;
6499;SDS011;3283;52.330;9.772;2023-09-19T13:48:53;616.47;;;429.03;;
6499;SDS011;3283;52.330;9.772;2023-09-19T13:51:20;618.63;;;449.17;;
6499;SDS011;3283;52.330;9.772;2023-09-19T13:53:48;621.77;;;465.67;;
6499;SDS011;3283;52.330;9.772;2023-09-19T13:56:14;623.33;;;458.27;;
6499;SDS011;3283;52.330;9.772;2023-09-19T13:58:40;626.53;;;473.47;;
6499;SDS011;3283;52.330;9.772;2023-09-19T14:01:07;618.73;;;432.77;;
6499;SDS011;3283;52.330;9.772;2023-09-19T14:03:37;616.67;;;429.43;;
6499;SDS011;3283;52.330;9.772;2023-09-19T14:06:03;624.13;;;467.67;;
6499;SDS011;3283;52.330;9.772;2023-09-19T14:08:28;628.17;;;490.83;;
6499;SDS011;3283;52.330;9.772;2023-09-19T14:10:54;615.80;;;420.73;;
6499;SDS011;3283;52.330;9.772;2023-09-19T14:13:19;624.03;;;469.77;;
6499;SDS011;3283;52.330;9.772;2023-09-19T14:15:45;614.50;;;421.63;;
6499;SDS011;3283;52.330;9.772;2023-09-19T14:18:11;613.87;;;419.10;;
6499;SDS011;3283;52.330;9.772;2023-09-19T14:20:38;616.73;;;438.40;;
6499;SDS011;3283;52.330;9.772;2023-09-19T14:23:05;613.03;;;413.33;;
6499;SDS011;3283;52.330;9.772;2023-09-19T14:25:33;626.03;;;472.50;;
6499;SDS011;3283;52.330;9.772;2023-09-19T14:27:59;614.10;;;424.53;;
6499;SDS011;3283;52.330;9.772;2023-09-19T14:30:24;625.33;;;483.93;;
6499;SDS011;3283;52.330;9.772;2023-09-19T14:32:50;617.80;;;445.13;;
6499;SDS011;3283;52.330;9.772;2023-09-19T14:35:16;622.10;;;452.60;;
6499;SDS011;3283;52.330;9.772;2023-09-19T14:37:42;624.77;;;469.17;;
6499;SDS011;3283;52.330;9.772;2023-09-19T14:40:07;623.77;;;477.30;;
6499;SDS011;3283;52.330;9.772;2023-09-19T14:42:34;621.87;;;425.37;;
6499;SDS011;3283;52.330;9.772;2023-09-19T14:45:03;617.27;;;422.23;;
6499;SDS011;3283;52.330;9.772;2023-09-19T14:47:30;614.60;;;414.87;;
6499;SDS011;3283;52.330;9.772;2023-09-19T14:49:57;613.63;;;412.37;;
6499;SDS011;3283;52.330;9.772;2023-09-19T14:52:23;618.73;;;435.37;;
6499;SDS011;3283;52.330;9.772;2023-09-19T14:54:52;616.83;;;428.03;;
6499;SDS011;3283;52.330;9.772;2023-09-19T14:57:18;621.23;;;448.43;;
6499;SDS011;3283;52.330;9.772;2023-09-19T14:59:44;622.10;;;443.63;;
6499;SDS011;3283;52.330;9.772;2023-09-19T15:02:09;621.37;;;446.93;;
6499;SDS011;3283;52.330;9.772;2023-09-19T15:04:35;623.50;;;470.70;;
6499;SDS011;3283;52.330;9.772;2023-09-19T15:07:00;623.47;;;464.60;;
6499;SDS011;3283;52.330;9.772;2023-09-19T15:09:25;625.13;;;474.77;;
6499;SDS011;3283;52.330;9.772;2023-09-19T15:11:54;632.87;;;486.73;;
6499;SDS011;3283;52.330;9.772;2023-09-19T15:14:21;631.17;;;492.60;;
6499;SDS011;3283;52.330;9.772;2023-09-19T15:16:47;631.40;;;499.77;;
6499;SDS011;3283;52.330;9.772;2023-09-19T15:19:13;625.80;;;490.23;;
6499;SDS011;3283;52.330;9.772;2023-09-19T15:21:40;622.90;;;463.43;;
6499;SDS011;3283;52.330;9.772;2023-09-19T15:24:05;631.73;;;515.50;;
6499;SDS011;3283;52.330;9.772;2023-09-19T15:26:34;625.97;;;468.30;;
6499;SDS011;3283;52.330;9.772;2023-09-19T15:29:04;634.87;;;531.23;;
6499;SDS011;3283;52.330;9.772;2023-09-19T15:31:34;628.40;;;493.97;;
6499;SDS011;3283;52.330;9.772;2023-09-19T15:34:01;629.70;;;516.33;;
6499;SDS011;3283;52.330;9.772;2023-09-19T15:36:27;632.30;;;517.83;;
6499;SDS011;3283;52.330;9.772;2023-09-19T15:41:22;632.07;;;514.77;;
6499;SDS011;3283;52.330;9.772;2023-09-19T15:43:49;636.73;;;544.53;;
6499;SDS011;3283;52.330;9.772;2023-09-19T15:46:14;635.57;;;527.63;;
6499;SDS011;3283;52.330;9.772;2023-09-19T15:48:41;631.27;;;513.77;;
6499;SDS011;3283;52.330;9.772;2023-09-19T15:51:07;641.63;;;550.97;;
6499;SDS011;3283;52.330;9.772;2023-09-19T15:53:45;639.67;;;552.63;;
6499;SDS011;3283;52.330;9.772;2023-09-19T15:56:12;636.20;;;547.37;;
6499;SDS011;3283;52.330;9.772;2023-09-19T15:58:41;655.93;;;584.10;;
6499;SDS011;3283;52.330;9.772;2023-09-19T16:01:09;637.97;;;541.17;;
6499;SDS011;3283;52.330;9.772;2023-09-19T16:03:38;634.37;;;528.70;;
6499;SDS011;3283;52.330;9.772;2023-09-19T16:06:07;633.77;;;523.90;;
6499;SDS011;3283;52.330;9.772;2023-09-19T16:08:35;632.80;;;498.20;;
6499;SDS011;3283;52.330;9.772;2023-09-19T16:11:01;626.83;;;490.03;;
6499;SDS011;3283;52.330;9.772;2023-09-19T16:13:27;635.13;;;517.10;;
6499;SDS011;3283;52.330;9.772;2023-09-19T16:15:53;628.87;;;497.17;;
6499;SDS011;3283;52.330;9.772;2023-09-19T16:18:19;628.87;;;487.63;;
6499;SDS011;3283;52.330;9.772;2023-09-19T16:20:44;620.83;;;448.90;;
6499;SDS011;3283;52.330;9.772;2023-09-19T16:23:10;627.03;;;485.67;;
6499;SDS011;3283;52.330;9.772;2023-09-19T16:25:36;626.70;;;452.67;;
6499;SDS011;3283;52.330;9.772;2023-09-19T16:28:01;621.70;;;448.63;;
6499;SDS011;3283;52.330;9.772;2023-09-19T16:30:27;616.73;;;399.40;;
6499;SDS011;3283;52.330;9.772;2023-09-19T16:32:53;616.73;;;429.33;;
6499;SDS011;3283;52.330;9.772;2023-09-19T16:35:19;617.73;;;419.60;;
6499;SDS011;3283;52.330;9.772;2023-09-19T16:37:44;621.30;;;446.23;;
6499;SDS011;3283;52.330;9.772;2023-09-19T16:40:10;616.27;;;438.13;;
6499;SDS011;3283;52.330;9.772;2023-09-19T16:42:40;622.70;;;427.97;;
6499;SDS011;3283;52.330;9.772;2023-09-19T16:45:06;624.47;;;455.43;;
6499;SDS011;3283;52.330;9.772;2023-09-19T16:47:33;615.93;;;425.30;;
6499;SDS011;3283;52.330;9.772;2023-09-19T16:49:58;622.47;;;424.27;;
6499;SDS011;3283;52.330;9.772;2023-09-19T16:52:24;621.60;;;440.30;;
6499;SDS011;3283;52.330;9.772;2023-09-19T16:54:49;616.03;;;415.73;;
6499;SDS011;3283;52.330;9.772;2023-09-19T16:57:16;614.40;;;395.53;;
6499;SDS011;3283;52.330;9.772;2023-09-19T16:59:42;620.27;;;438.03;;
6499;SDS011;3283;52.330;9.772;2023-09-19T17:02:07;621.37;;;433.53;;
6499;SDS011;3283;52.330;9.772;2023-09-19T17:04:33;612.57;;;382.37;;
6499;SDS011;3283;52.330;9.772;2023-09-19T17:06:58;613.43;;;395.93;;
6499;SDS011;3283;52.330;9.772;2023-09-19T17:09:24;611.80;;;378.07;;
6499;SDS011;3283;52.330;9.772;2023-09-19T17:11:49;611.57;;;397.50;;
6499;SDS011;3283;52.330;9.772;2023-09-19T17:14:15;612.43;;;387.93;;
6499;SDS011;3283;52.330;9.772;2023-09-19T17:16:40;617.47;;;404.93;;
6499;SDS011;3283;52.330;9.772;2023-09-19T17:19:06;614.57;;;390.10;;
6499;SDS011;3283;52.330;9.772;2023-09-19T17:21:33;609.40;;;370.10;;
6499;SDS011;3283;52.330;9.772;2023-09-19T17:23:59;609.33;;;375.10;;
6499;SDS011;3283;52.330;9.772;2023-09-19T17:26:25;614.33;;;402.43;;
6499;SDS011;3283;52.330;9.772;2023-09-19T17:28:54;613.13;;;380.67;;
6499;SDS011;3283;52.330;9.772;2023-09-19T17:31:20;617.77;;;389.90;;
6499;SDS011;3283;52.330;9.772;2023-09-19T17:33:48;608.37;;;379.57;;
6499;SDS011;3283;52.330;9.772;2023-09-19T17:36:15;607.73;;;357.50;;
6499;SDS011;3283;52.330;9.772;2023-09-19T17:38:43;612.33;;;373.80;;
6499;SDS011;3283;52.330;9.772;2023-09-19T17:41:09;608.53;;;367.40;;
6499;SDS011;3283;52.330;9.772;2023-09-19T17:43:37;606.93;;;360.97;;
6499;SDS011;3283;52.330;9.772;2023-09-19T17:46:06;616.33;;;414.07;;
6499;SDS011;3283;52.330;9.772;2023-09-19T17:48:35;613.60;;;378.13;;
6499;SDS011;3283;52.330;9.772;2023-09-19T17:51:01;607.80;;;359.00;;
6499;SDS011;3283;52.330;9.772;2023-09-19T17:53:30;614.53;;;376.53;;
6499;SDS011;3283;52.330;9.772;2023-09-19T17:55:55;610.00;;;357.23;;
6499;SDS011;3283;52.330;9.772;2023-09-19T17:58:22;616.80;;;393.53;;
6499;SDS011;3283;52.330;9.772;2023-09-19T18:00:47;618.60;;;411.80;;
6499;SDS011;3283;52.330;9.772;2023-09-19T18:03:13;616.43;;;392.83;;
6499;SDS011;3283;52.330;9.772;2023-09-19T18:05:44;613.07;;;381.17;;
6499;SDS011;3283;52.330;9.772;2023-09-19T18:08:10;616.73;;;397.97;;
6499;SDS011;3283;52.330;9.772;2023-09-19T18:10:37;612.27;;;375.10;;
6499;SDS011;3283;52.330;9.772;2023-09-19T18:13:03;610.10;;;372.43;;
6499;SDS011;3283;52.330;9.772;2023-09-19T18:15:31;618.47;;;416.13;;
6499;SDS011;3283;52.330;9.772;2023-09-19T18:18:00;612.23;;;403.10;;
6499;SDS011;3283;52.330;9.772;2023-09-19T18:20:26;615.30;;;398.73;;
6499;SDS011;3283;52.330;9.772;2023-09-19T18:22:51;614.80;;;400.10;;
6499;SDS011;3283;52.330;9.772;2023-09-19T18:25:18;613.73;;;412.07;;
6499;SDS011;3283;52.330;9.772;2023-09-19T18:27:44;609.10;;;389.07;;
6499;SDS011;3283;52.330;9.772;2023-09-19T18:30:11;615.20;;;398.27;;
6499;SDS011;3283;52.330;9.772;2023-09-19T18:32:37;617.23;;;390.97;;
6499;SDS011;3283;52.330;9.772;2023-09-19T18:35:03;606.20;;;359.47;;
6499;SDS011;3283;52.330;9.772;2023-09-19T18:37:32;612.67;;;384.07;;
6499;SDS011;3283;52.330;9.772;2023-09-19T18:39:57;606.60;;;362.53;;
6499;SDS011;3283;52.330;9.772;2023-09-19T18:42:23;617.33;;;405.80;;
6499;SDS011;3283;52.330;9.772;2023-09-19T18:44:49;616.47;;;407.90;;
6499;SDS011;3283;52.330;9.772;2023-09-19T18:47:14;607.17;;;356.47;;
6499;SDS011;3283;52.330;9.772;2023-09-19T18:49:40;606.70;;;367.50;;
6499;SDS011;3283;52.330;9.772;2023-09-19T18:52:06;606.83;;;378.63;;
6499;SDS011;3283;52.330;9.772;2023-09-19T18:54:33;616.23;;;413.87;;
6499;SDS011;3283;52.330;9.772;2023-09-19T18:56:58;612.03;;;374.63;;
6499;SDS011;3283;52.330;9.772;2023-09-19T18:59:24;610.20;;;386.17;;
6499;SDS011;3283;52.330;9.772;2023-09-19T19:01:50;603.77;;;349.67;;
6499;SDS011;3283;52.330;9.772;2023-09-19T19:04:15;601.10;;;343.63;;
6499;SDS011;3283;52.330;9.772;2023-09-19T19:06:41;613.30;;;378.80;;
6499;SDS011;3283;52.330;9.772;2023-09-19T19:09:06;608.17;;;368.17;;
6499;SDS011;3283;52.330;9.772;2023-09-19T19:11:32;612.43;;;380.10;;
6499;SDS011;3283;52.330;9.772;2023-09-19T19:13:59;613.57;;;383.93;;
6499;SDS011;3283;52.330;9.772;2023-09-19T19:16:24;616.77;;;397.40;;
6499;SDS011;3283;52.330;9.772;2023-09-19T19:18:51;611.20;;;360.67;;
6499;SDS011;3283;52.330;9.772;2023-09-19T19:21:18;614.00;;;381.10;;
6499;SDS011;3283;52.330;9.772;2023-09-19T19:23:43;606.57;;;355.80;;
6499;SDS011;3283;52.330;9.772;2023-09-19T19:26:09;607.37;;;360.07;;
6499;SDS011;3283;52.330;9.772;2023-09-19T19:28:36;614.27;;;392.37;;
6499;SDS011;3283;52.330;9.772;2023-09-19T19:31:07;608.23;;;355.83;;
6499;SDS011;3283;52.330;9.772;2023-09-19T19:33:34;608.53;;;352.07;;
6499;SDS011;3283;52.330;9.772;2023-09-19T19:36:06;605.53;;;340.63;;
6499;SDS011;3283;52.330;9.772;2023-09-19T19:38:33;611.00;;;370.33;;
6499;SDS011;3283;52.330;9.772;2023-09-19T19:41:01;616.10;;;378.07;;
6499;SDS011;3283;52.330;9.772;2023-09-19T19:43:27;611.13;;;375.63;;
6499;SDS011;3283;52.330;9.772;2023-09-19T19:45:56;607.73;;;363.37;;
6499;SDS011;3283;52.330;9.772;2023-09-19T19:48:23;614.40;;;390.80;;
6499;SDS011;3283;52.330;9.772;2023-09-19T19:50:49;611.13;;;379.10;;
6499;SDS011;3283;52.330;9.772;2023-09-19T19:53:14;607.73;;;352.10;;
6499;SDS011;3283;52.330;9.772;2023-09-19T19:55:40;603.77;;;344.27;;
6499;SDS011;3283;52.330;9.772;2023-09-19T19:58:05;606.07;;;345.70;;
6499;SDS011;3283;52.330;9.772;2023-09-19T20:00:31;613.50;;;389.93;;
6499;SDS011;3283;52.330;9.772;2023-09-19T20:02:58;610.83;;;370.00;;
6499;SDS011;3283;52.330;9.772;2023-09-19T20:05:24;601.53;;;334.97;;
6499;SDS011;3283;52.330;9.772;2023-09-19T20:07:51;612.93;;;375.33;;